Time;durP1;ratioP1;P1;durP2;ratioP2;P2;SDS_P1;SDS_P2;PMS_P1;PMS_P2;Temp;Humidity;BMP_temperature;BMP_pressure;BME280_temperature;BME280_humidity;BME280_pressure;Samples;Min_cycle;Max_cycle;Signal;HPM_P1;HPM_P2
2022/02/11 00:07:10;;;;;;;20.02;9.98;;;;;;;;;;5094225;28;20449;-78
2022/02/11 00:09:37;;;;;;;16.63;9.88;;;;;;;;;;5093922;28;20119;-78
2022/02/11 00:12:04;;;;;;;16.10;8.48;;;;;;;;;;5094083;28;20042;-78
2022/02/11 00:14:34;;;;;;;17.15;8.25;;;;;;;;;;5094139;28;20099;-78
2022/02/11 00:17:00;;;;;;;15.05;8.95;;;;;;;;;;5092463;28;20024;-78
2022/02/11 00:19:26;;;;;;;22.33;10.02;;;;;;;;;;5094110;28;20031;-77
2022/02/11 00:21:52;;;;;;;19.00;10.10;;;;;;;;;;5092671;28;20153;-78
2022/02/11 00:24:19;;;;;;;20.80;10.48;;;;;;;;;;5093638;28;20055;-78
2022/02/11 00:26:57;;;;;;;20.92;10.82;;;;;;;;;;5092601;28;20024;-78
2022/02/11 00:34:29;;;;;;;17.50;8.85;;;;;;;;;;5094607;28;20488;-77
2022/02/11 00:37:12;;;;;;;24.33;9.80;;;;;;;;;;5093877;28;20047;-78
2022/02/11 00:45:29;;;;;;;25.13;13.15;;;;;;;;;;5093283;28;20065;-78
2022/02/11 01:04:01;;;;;;;30.95;17.45;;;;;;;;;;5094086;28;20046;-78
2022/02/11 01:06:28;;;;;;;27.00;14.30;;;;;;;;;;5093286;28;20055;-78
2022/02/11 01:08:54;;;;;;;30.90;16.23;;;;;;;;;;5094064;28;20395;-78
2022/02/11 01:11:28;;;;;;;44.63;21.42;;;;;;;;;;5097049;28;20066;-78
2022/02/11 01:13:54;;;;;;;38.40;17.42;;;;;;;;;;5097291;28;20038;-78
2022/02/11 01:16:27;;;;;;;30.08;15.38;;;;;;;;;;5097407;28;20509;-78
2022/02/11 01:19:06;;;;;;;27.52;13.63;;;;;;;;;;5097467;28;20048;-78
2022/02/11 01:21:41;;;;;;;22.67;12.05;;;;;;;;;;5097039;28;20053;-78
2022/02/11 01:24:25;;;;;;;21.77;11.38;;;;;;;;;;5097436;28;20040;-78
2022/02/11 01:32:37;;;;;;;19.02;10.93;;;;;;;;;;5097378;28;20035;-78
2022/02/11 01:48:43;;;;;;;31.77;15.23;;;;;;;;;;5096209;28;20089;-77
2022/02/11 01:51:04;;;;;;;30.08;15.98;;;;;;;;;;5096475;28;20039;-77
2022/02/11 01:53:43;;;;;;;35.80;18.98;;;;;;;;;;5096952;28;20019;-77
2022/02/11 01:56:18;;;;;;;32.08;18.15;;;;;;;;;;5095239;28;20024;-77
2022/02/11 02:05:07;;;;;;;41.88;17.88;;;;;;;;;;5096552;28;20038;-78
2022/02/11 02:50:19;;;;;;;26.65;13.15;;;;;;;;;;5095610;28;20105;-76
2022/02/11 02:58:44;;;;;;;21.90;10.90;;;;;;;;;;5091715;28;20051;-79
2022/02/11 03:52:34;;;;;;;24.23;10.02;;;;;;;;;;5094536;28;20118;-77
2022/02/11 03:55:57;;;;;;;22.02;10.13;;;;;;;;;;5093976;28;20028;-77
2022/02/11 04:55:22;;;;;;;30.08;15.95;;;;;;;;;;5093908;28;20415;-77
2022/02/11 05:00:33;;;;;;;29.65;14.80;;;;;;;;;;5093703;28;20138;-78
2022/02/11 05:02:59;;;;;;;25.00;13.90;;;;;;;;;;5093429;28;20032;-79
2022/02/11 05:05:25;;;;;;;19.50;11.00;;;;;;;;;;5091950;28;20020;-78
2022/02/11 05:07:52;;;;;;;22.55;11.90;;;;;;;;;;5093519;28;20082;-78
2022/02/11 05:10:19;;;;;;;18.13;9.93;;;;;;;;;;5093568;28;20032;-78
2022/02/11 05:12:45;;;;;;;19.45;10.48;;;;;;;;;;5091811;28;20480;-78
2022/02/11 05:15:12;;;;;;;19.30;9.85;;;;;;;;;;5093348;28;20028;-77
2022/02/11 05:17:39;;;;;;;18.15;9.07;;;;;;;;;;5093606;28;20020;-83
2022/02/11 05:20:06;;;;;;;20.38;10.63;;;;;;;;;;5091832;28;20491;-80
2022/02/11 05:22:32;;;;;;;15.77;9.80;;;;;;;;;;5093291;28;20051;-80
2022/02/11 05:24:58;;;;;;;16.10;8.95;;;;;;;;;;5092053;28;20020;-81
2022/02/11 05:27:25;;;;;;;17.95;9.48;;;;;;;;;;5093053;28;20025;-82
2022/02/11 05:29:51;;;;;;;13.85;8.10;;;;;;;;;;5093684;28;20032;-81
2022/02/11 05:32:17;;;;;;;18.50;9.48;;;;;;;;;;5093561;28;20460;-78
2022/02/11 05:34:43;;;;;;;15.43;8.98;;;;;;;;;;5092906;28;20491;-80
2022/02/11 05:37:09;;;;;;;21.35;10.20;;;;;;;;;;5093162;28;20016;-79
2022/02/11 05:39:35;;;;;;;31.55;14.70;;;;;;;;;;5092741;28;20051;-78
2022/02/11 05:42:02;;;;;;;30.17;14.88;;;;;;;;;;5093355;28;20052;-79
2022/02/11 05:44:28;;;;;;;27.58;14.82;;;;;;;;;;5093318;28;20016;-79
2022/02/11 05:46:54;;;;;;;29.40;14.15;;;;;;;;;;5091489;28;20027;-79
2022/02/11 05:49:21;;;;;;;27.88;14.18;;;;;;;;;;5091455;28;20059;-78
2022/02/11 05:51:47;;;;;;;23.88;13.27;;;;;;;;;;5091772;28;20024;-79
2022/02/11 05:54:13;;;;;;;20.25;12.75;;;;;;;;;;5092695;28;20027;-78
2022/02/11 05:56:40;;;;;;;51.13;25.85;;;;;;;;;;5093673;28;20043;-79
2022/02/11 05:59:06;;;;;;;43.28;22.80;;;;;;;;;;5096816;28;20024;-79
2022/02/11 06:01:32;;;;;;;37.72;22.02;;;;;;;;;;5094003;28;20388;-80
2022/02/11 06:03:58;;;;;;;35.80;20.88;;;;;;;;;;5096459;28;20027;-79
2022/02/11 06:06:24;;;;;;;37.83;22.23;;;;;;;;;;5096099;28;20091;-80
2022/02/11 06:08:50;;;;;;;43.05;24.02;;;;;;;;;;5096748;28;20036;-79
2022/02/11 06:11:17;;;;;;;62.13;32.65;;;;;;;;;;5095755;28;20047;-64
2022/02/11 06:13:43;;;;;;;79.72;45.60;;;;;;;;;;5094884;28;20045;-64
2022/02/11 06:16:09;;;;;;;72.07;42.85;;;;;;;;;;5095420;28;20020;-64
2022/02/11 06:18:36;;;;;;;69.38;39.78;;;;;;;;;;5095918;28;20028;-63
2022/02/11 06:21:02;;;;;;;79.10;50.67;;;;;;;;;;5092191;28;20020;-64
2022/02/11 06:23:31;;;;;;;91.18;53.40;;;;;;;;;;5102729;28;20034;-65
2022/02/11 06:25:57;;;;;;;85.32;47.97;;;;;;;;;;5110792;28;20035;-65
2022/02/11 06:28:23;;;;;;;76.63;44.05;;;;;;;;;;5102318;28;20117;-64
2022/02/11 06:30:49;;;;;;;93.88;46.75;;;;;;;;;;5095178;28;20023;-66
2022/02/11 06:33:16;;;;;;;177.80;65.10;;;;;;;;;;5093283;28;20024;-65
2022/02/11 06:35:44;;;;;;;141.70;57.80;;;;;;;;;;5098471;28;20145;-65
2022/02/11 06:38:10;;;;;;;135.80;59.05;;;;;;;;;;5114551;28;20045;-63
2022/02/11 06:40:37;;;;;;;93.80;43.60;;;;;;;;;;5108060;28;20387;-63
2022/02/11 06:43:06;;;;;;;88.97;47.05;;;;;;;;;;5112650;28;20035;-76
2022/02/11 06:45:32;;;;;;;104.18;51.60;;;;;;;;;;5103499;28;20024;-79
2022/02/11 06:47:58;;;;;;;84.38;42.78;;;;;;;;;;5093965;28;20396;-79
2022/02/11 06:50:24;;;;;;;92.55;42.13;;;;;;;;;;5095093;28;20024;-80
2022/02/11 06:52:55;;;;;;;84.38;44.25;;;;;;;;;;5106933;28;20032;-80
2022/02/11 06:55:21;;;;;;;91.95;48.22;;;;;;;;;;5113972;28;20024;-80
2022/02/11 06:57:47;;;;;;;78.25;39.75;;;;;;;;;;5114070;28;20024;-81
2022/02/11 07:00:14;;;;;;;82.05;40.65;;;;;;;;;;5114453;28;20024;-79
2022/02/11 07:02:41;;;;;;;50.95;26.13;;;;;;;;;;5115065;28;20020;-84
2022/02/11 07:05:07;;;;;;;45.15;20.55;;;;;;;;;;5115112;28;20390;-81
2022/02/11 07:07:34;;;;;;;49.33;26.00;;;;;;;;;;5113836;28;20118;-78
2022/02/11 07:10:00;;;;;;;45.40;25.15;;;;;;;;;;5110210;28;20107;-77
2022/02/11 07:12:27;;;;;;;95.03;49.72;;;;;;;;;;5112808;28;20016;-73
2022/02/11 07:14:54;;;;;;;67.93;38.97;;;;;;;;;;5108827;28;20377;-75
2022/02/11 07:17:20;;;;;;;39.97;25.15;;;;;;;;;;5113000;28;20038;-80
2022/02/11 07:19:47;;;;;;;45.58;28.80;;;;;;;;;;5109344;28;20035;-79
2022/02/11 07:22:13;;;;;;;50.72;29.13;;;;;;;;;;5095901;28;20348;-78
2022/02/11 07:24:39;;;;;;;61.90;35.53;;;;;;;;;;5090715;28;20413;-81
2022/02/11 07:27:05;;;;;;;56.28;36.15;;;;;;;;;;5091384;28;20048;-80
2022/02/11 07:29:31;;;;;;;92.60;54.25;;;;;;;;;;5094229;28;20031;-79
2022/02/11 07:31:58;;;;;;;115.97;63.35;;;;;;;;;;5113520;28;20015;-75
2022/02/11 07:34:24;;;;;;;110.00;47.35;;;;;;;;;;5108806;28;20111;-78
2022/02/11 07:36:50;;;;;;;91.90;46.28;;;;;;;;;;5105007;28;20034;-78
2022/02/11 07:39:16;;;;;;;87.38;44.50;;;;;;;;;;5113104;28;20059;-77
2022/02/11 07:41:43;;;;;;;66.70;29.52;;;;;;;;;;5113600;28;20024;-74
2022/02/11 07:44:09;;;;;;;58.83;30.10;;;;;;;;;;5111111;28;20023;-74
2022/02/11 07:46:35;;;;;;;58.88;28.67;;;;;;;;;;5089790;28;20061;-74
2022/02/11 07:49:01;;;;;;;55.97;27.58;;;;;;;;;;5091403;28;20153;-75
2022/02/11 07:51:28;;;;;;;50.22;27.65;;;;;;;;;;5092162;28;20040;-74
2022/02/11 07:53:55;;;;;;;40.20;21.77;;;;;;;;;;5090081;28;21026;-73
2022/02/11 07:56:22;;;;;;;32.30;17.05;;;;;;;;;;5090099;28;20020;-77
2022/02/11 07:58:48;;;;;;;30.85;17.05;;;;;;;;;;5093976;28;20019;-83
2022/02/11 08:01:19;;;;;;;29.52;17.65;;;;;;;;;;5095247;28;20041;-88
2022/02/11 08:03:45;;;;;;;35.00;18.88;;;;;;;;;;5100084;28;20016;-84
2022/02/11 08:06:11;;;;;;;35.03;16.63;;;;;;;;;;5111508;28;20023;-81
2022/02/11 08:08:38;;;;;;;23.02;12.25;;;;;;;;;;5111645;28;20388;-80
2022/02/11 08:11:04;;;;;;;38.95;20.13;;;;;;;;;;5109860;28;20027;-78
2022/02/11 08:13:31;;;;;;;35.58;19.67;;;;;;;;;;5100455;28;20024;-76
2022/02/11 08:15:57;;;;;;;34.05;18.38;;;;;;;;;;5111914;28;20027;-78
2022/02/11 08:18:23;;;;;;;23.33;14.35;;;;;;;;;;5112591;28;20081;-79
2022/02/11 08:20:50;;;;;;;26.88;11.05;;;;;;;;;;5111846;28;20114;-85
2022/02/11 08:23:16;;;;;;;19.98;10.55;;;;;;;;;;5093902;28;20145;-86
2022/02/11 08:25:42;;;;;;;17.50;9.65;;;;;;;;;;5106847;28;20028;-86
2022/02/11 08:28:08;;;;;;;21.95;11.70;;;;;;;;;;5096230;28;20031;-86
2022/02/11 08:30:35;;;;;;;37.92;18.60;;;;;;;;;;5098386;28;20085;-83
2022/02/11 08:33:01;;;;;;;28.10;13.18;;;;;;;;;;5109341;28;20353;-77
2022/02/11 08:35:27;;;;;;;47.65;21.90;;;;;;;;;;5112313;28;20027;-85
2022/02/11 08:37:53;;;;;;;19.88;10.52;;;;;;;;;;5109932;28;20023;-84
2022/02/11 08:40:20;;;;;;;46.40;20.17;;;;;;;;;;5112159;28;20024;-81
2022/02/11 08:42:46;;;;;;;58.70;24.33;;;;;;;;;;5104541;28;20409;-84
2022/02/11 08:45:12;;;;;;;;;;;;;;;;;;5111945;28;20907;-84
2022/02/11 08:47:38;;;;;;;;;;;;;;;;;;5104282;28;19904;-86
2022/02/11 08:50:05;;;;;;;21.17;13.90;;;;;;;;;;5091470;28;20505;-84
2022/02/11 08:52:31;;;;;;;20.70;13.23;;;;;;;;;;5097059;28;20038;-82
2022/02/11 08:54:57;;;;;;;16.75;11.48;;;;;;;;;;5097080;28;20033;-82
2022/02/11 08:57:24;;;;;;;16.33;10.63;;;;;;;;;;5115016;28;20548;-86
2022/02/11 08:59:50;;;;;;;18.95;11.82;;;;;;;;;;5115863;28;20039;-88
2022/02/11 09:02:17;;;;;;;20.83;12.32;;;;;;;;;;5120488;28;20051;-85
2022/02/11 09:04:43;;;;;;;25.85;17.45;;;;;;;;;;5113100;28;20414;-85
2022/02/11 09:07:09;;;;;;;25.10;14.90;;;;;;;;;;5111765;28;20611;-81
2022/02/11 09:09:36;;;;;;;25.98;14.95;;;;;;;;;;5113443;28;20081;-81
2022/02/11 09:12:02;;;;;;;25.23;13.55;;;;;;;;;;5112913;28;20020;-81
2022/02/11 09:14:28;;;;;;;27.95;19.10;;;;;;;;;;5108388;28;20421;-83
2022/02/11 09:16:54;;;;;;;31.35;19.13;;;;;;;;;;5091407;28;20020;-81
2022/02/11 09:19:22;;;;;;;18.05;12.20;;;;;;;;;;5091488;28;20020;-83
2022/02/11 09:21:48;;;;;;;20.05;12.77;;;;;;;;;;5092084;28;20016;-83
2022/02/11 09:24:14;;;;;;;27.80;16.90;;;;;;;;;;5092048;28;20032;-82
2022/02/11 09:26:40;;;;;;;22.00;13.15;;;;;;;;;;5087174;28;20020;-83
2022/02/11 09:29:06;;;;;;;25.23;14.73;;;;;;;;;;5086100;28;20150;-83
2022/02/11 09:31:33;;;;;;;23.17;12.23;;;;;;;;;;5091895;28;20139;-81
2022/02/11 09:34:06;;;;;;;20.35;11.68;;;;;;;;;;5094834;28;20467;-82
2022/02/11 09:36:35;;;;;;;29.15;17.40;;;;;;;;;;5077786;28;20020;-81
2022/02/11 09:39:03;;;;;;;21.85;14.93;;;;;;;;;;5093880;28;20024;-80
2022/02/11 09:41:30;;;;;;;69.88;34.58;;;;;;;;;;5093401;28;20027;-84
2022/02/11 09:44:00;;;;;;;24.25;14.55;;;;;;;;;;5094176;28;20020;-80
2022/02/11 09:47:38;;;;;;;16.35;11.32;;;;;;;;;;5108871;27;20384;-81
2022/02/11 09:50:05;;;;;;;21.55;13.57;;;;;;;;;;5108989;28;20027;-80
2022/02/11 09:52:44;;;;;;;19.83;14.52;;;;;;;;;;5104822;28;20135;-79
2022/02/11 09:55:50;;;;;;;25.17;14.73;;;;;;;;;;5068095;28;20790;-80
2022/02/11 09:58:18;;;;;;;19.83;12.95;;;;;;;;;;5070301;28;20020;-83
2022/02/11 10:02:30;;;;;;;19.58;12.20;;;;;;;;;;5111160;27;20469;-82
2022/02/11 10:06:12;;;;;;;21.58;15.30;;;;;;;;;;4854096;27;6674554;-79
2022/02/11 10:08:40;;;;;;;18.83;11.02;;;;;;;;;;5068666;28;20111;-80
2022/02/11 10:11:08;;;;;;;17.52;10.27;;;;;;;;;;5065608;28;20045;-80
2022/02/11 10:13:39;;;;;;;26.88;9.98;;;;;;;;;;5071892;28;20030;-77
2022/02/11 10:16:10;;;;;;;20.90;10.98;;;;;;;;;;5065925;28;20511;-80
2022/02/11 10:23:28;;;;;;;15.38;8.55;;;;;;;;;;5109171;27;20446;-78
2022/02/11 10:25:59;;;;;;;14.52;9.98;;;;;;;;;;5107626;28;20085;-81
2022/02/11 10:28:58;;;;;;;13.35;8.25;;;;;;;;;;5108254;27;20119;-79
2022/02/11 10:31:29;;;;;;;22.65;15.48;;;;;;;;;;5108379;28;20040;-81
2022/02/11 10:33:55;;;;;;;;;;;;;;;;;;5108767;28;20031;-81
2022/02/11 10:36:21;;;;;;;;;;;;;;;;;;5109166;28;19912;-77
2022/02/11 10:38:48;;;;;;;;;;;;;;;;;;5104876;28;20325;-78
2022/02/11 10:42:14;;;;;;;243.80;127.57;;;;;;;;;;5123988;27;20432;-79
2022/02/11 10:44:43;;;;;;;229.25;136.40;;;;;;;;;;5130012;27;20393;-79
2022/02/11 10:50:58;;;;;;;;;;;;;;;;;;5089713;28;19918;-76
2022/02/11 10:53:24;;;;;;;;;;;;;;;;;;5087866;28;19917;-77
2022/02/11 10:55:50;;;;;;;;;;;;;;;;;;5088811;28;20440;-76
2022/02/11 10:58:16;;;;;;;;;;;;;;;;;;5089745;28;19943;-76
2022/02/11 11:01:38;;;;;;;;;;;;;;;;;;5090367;27;19919;-78
2022/02/11 11:05:30;;;;;;;;;;;;;;;;;;5089920;27;19922;-80
2022/02/11 11:11:21;;;;;;;;;;;;;;;;;;5106297;27;19916;-76
2022/02/11 11:13:48;;;;;;;;;;;;;;;;;;5109168;28;19965;-79
2022/02/11 11:16:14;;;;;;;;;;;;;;;;;;5109536;28;19951;-80
2022/02/11 11:19:39;;;;;;;;;;;;;;;;;;5151813;27;20343;-81
2022/02/11 11:22:11;;;;;;;;;;;;;;;;;;5143933;27;19915;-80
2022/02/11 11:24:37;;;;;;;;;;;;;;;;;;5131302;27;19923;-78
2022/02/11 11:29:32;;;;;;;;;;;;;;;;;;5111390;27;19935;-76
2022/02/11 11:31:58;;;;;;;;;;;;;;;;;;5110769;28;19916;-79
2022/02/11 11:39:09;;;;;;;11.70;5.78;;;;;;;;;;5089371;27;20358;-79
2022/02/11 11:41:37;;;;;;;13.15;7.93;;;;;;;;;;5090192;28;20093;-76
2022/02/11 11:44:20;;;;;;;15.05;7.32;;;;;;;;;;5090247;28;20020;-85
2022/02/11 11:46:53;;;;;;;9.07;5.80;;;;;;;;;;5090061;28;20108;-80
2022/02/11 11:49:21;;;;;;;8.43;5.10;;;;;;;;;;5090178;28;20388;-79
2022/02/11 11:51:47;;;;;;;10.02;6.15;;;;;;;;;;5087453;28;20031;-77
2022/02/11 11:54:23;;;;;;;10.35;5.68;;;;;;;;;;5089479;28;20046;-81
2022/02/11 11:57:38;;;;;;;11.43;5.85;;;;;;;;;;5068261;28;20496;-82
2022/02/11 12:00:05;;;;;;;13.10;8.70;;;;;;;;;;5070288;28;20040;-90
2022/02/11 12:02:35;;;;;;;9.13;5.10;;;;;;;;;;5069219;28;20017;-83
2022/02/11 12:05:02;;;;;;;13.48;6.80;;;;;;;;;;5070237;28;20031;-83
2022/02/11 12:07:36;;;;;;;8.98;5.18;;;;;;;;;;5067394;28;20771;-78
2022/02/11 12:10:05;;;;;;;15.35;5.43;;;;;;;;;;5067708;28;20029;-79
2022/02/11 12:12:33;;;;;;;10.27;5.32;;;;;;;;;;5064631;28;20446;-78
2022/02/11 12:15:02;;;;;;;8.05;5.38;;;;;;;;;;5067604;28;20469;-80
2022/02/11 12:17:44;;;;;;;8.35;5.22;;;;;;;;;;5108412;27;20485;-76
2022/02/11 12:20:11;;;;;;;8.02;4.22;;;;;;;;;;5109151;28;20034;-84
2022/02/11 12:22:37;;;;;;;9.50;4.63;;;;;;;;;;5108160;28;20544;-81
2022/02/11 12:28:20;;;;;;;8.93;4.55;;;;;;;;;;5110277;28;20216;-81
2022/02/11 12:30:47;;;;;;;8.50;5.15;;;;;;;;;;5110424;28;20034;-89
2022/02/11 12:33:13;;;;;;;9.40;5.55;;;;;;;;;;5112566;28;20482;-88
2022/02/11 12:35:45;;;;;;;10.90;5.68;;;;;;;;;;5112332;28;20024;-88
2022/02/11 12:38:11;;;;;;;12.63;6.85;;;;;;;;;;5108635;28;20016;-80
2022/02/11 12:40:41;;;;;;;8.45;4.47;;;;;;;;;;5126113;28;20518;-80
2022/02/11 12:43:09;;;;;;;11.70;5.35;;;;;;;;;;5129147;27;20019;-79
2022/02/11 12:45:36;;;;;;;21.55;8.65;;;;;;;;;;5130945;28;20035;-79
2022/02/11 12:48:04;;;;;;;9.55;5.90;;;;;;;;;;5129070;28;20036;-77
2022/02/11 12:51:17;;;;;;;6.50;3.20;;;;;;;;;;5110843;27;20923;-77
2022/02/11 12:53:43;;;;;;;12.32;6.70;;;;;;;;;;5111158;28;20376;-77
2022/02/11 12:56:13;;;;;;;8.82;4.72;;;;;;;;;;5110224;28;20498;-79
2022/02/11 12:59:08;;;;;;;10.57;5.75;;;;;;;;;;5111073;27;20915;-80
2022/02/11 13:01:35;;;;;;;16.70;5.40;;;;;;;;;;5110880;28;20090;-80
2022/02/11 13:04:01;;;;;;;16.70;7.25;;;;;;;;;;5106647;28;20028;-80
2022/02/11 13:06:27;;;;;;;15.27;5.90;;;;;;;;;;5110551;28;20484;-81
2022/02/11 13:09:00;;;;;;;10.07;5.57;;;;;;;;;;5111070;28;20033;-81
2022/02/11 13:11:27;;;;;;;8.05;4.45;;;;;;;;;;5111521;28;20074;-91
2022/02/11 13:14:02;;;;;;;6.90;3.50;;;;;;;;;;5114737;28;20038;-90
2022/02/11 13:16:28;;;;;;;9.20;4.13;;;;;;;;;;5110397;28;20124;-86
2022/02/11 13:18:55;;;;;;;11.70;5.93;;;;;;;;;;5108412;28;20061;-86
2022/02/11 13:21:21;;;;;;;8.05;4.03;;;;;;;;;;5109268;28;20357;-86
2022/02/11 13:23:52;;;;;;;5.13;3.13;;;;;;;;;;5091958;28;20029;-87
2022/02/11 13:26:24;;;;;;;6.20;2.97;;;;;;;;;;5092198;28;20023;-87
2022/02/11 13:28:53;;;;;;;10.90;4.53;;;;;;;;;;5092172;28;20027;-91
2022/02/11 13:31:19;;;;;;;7.22;3.65;;;;;;;;;;5089627;28;20028;-80
2022/02/11 13:33:46;;;;;;;7.05;4.47;;;;;;;;;;5092886;28;20016;-87
2022/02/11 13:36:22;;;;;;;8.70;4.57;;;;;;;;;;5091065;28;20031;-87
2022/02/11 13:38:49;;;;;;;8.73;5.13;;;;;;;;;;5089896;28;20124;-85
2022/02/11 13:41:16;;;;;;;8.95;4.40;;;;;;;;;;5119562;28;20030;-84
2022/02/11 13:43:47;;;;;;;6.95;3.42;;;;;;;;;;5109919;28;20051;-85
2022/02/11 13:48:09;;;;;;;9.32;4.30;;;;;;;;;;5109568;27;20373;-82
2022/02/11 13:50:55;;;;;;;9.38;4.30;;;;;;;;;;5111417;28;20032;-84
2022/02/11 13:53:31;;;;;;;5.38;3.17;;;;;;;;;;5110666;28;20024;-83
2022/02/11 13:55:58;;;;;;;7.10;3.13;;;;;;;;;;5117286;28;20114;-88
2022/02/11 13:58:24;;;;;;;7.85;4.35;;;;;;;;;;5119622;28;20024;-86
2022/02/11 14:02:44;;;;;;;10.45;4.90;;;;;;;;;;5074031;28;20388;-82
2022/02/11 14:05:10;;;;;;;7.45;4.43;;;;;;;;;;5068270;28;20029;-80
2022/02/11 14:07:36;;;;;;;11.02;5.10;;;;;;;;;;5070354;28;20032;-82
2022/02/11 14:10:19;;;;;;;10.18;4.10;;;;;;;;;;5069345;28;20024;-81
2022/02/11 14:12:45;;;;;;;5.38;3.38;;;;;;;;;;5069472;28;20082;-81
2022/02/11 14:15:12;;;;;;;7.43;3.90;;;;;;;;;;5069121;28;20067;-79
2022/02/11 14:17:40;;;;;;;8.93;4.88;;;;;;;;;;5069157;28;20105;-79
2022/02/11 14:20:07;;;;;;;10.32;5.13;;;;;;;;;;5067820;28;20029;-79
2022/02/11 14:22:34;;;;;;;9.55;4.45;;;;;;;;;;5069658;28;20481;-80
2022/02/11 14:25:00;;;;;;;10.35;5.72;;;;;;;;;;5070294;28;20059;-80
2022/02/11 14:27:26;;;;;;;11.32;5.47;;;;;;;;;;5068750;28;20787;-84
2022/02/11 14:29:52;;;;;;;10.30;5.60;;;;;;;;;;5070136;28;20431;-81
2022/02/11 14:32:19;;;;;;;9.90;6.20;;;;;;;;;;5070436;28;20044;-80
2022/02/11 14:34:45;;;;;;;10.43;6.43;;;;;;;;;;5070135;28;20025;-80
2022/02/11 14:37:11;;;;;;;11.15;5.85;;;;;;;;;;5070165;28;20388;-80
2022/02/11 14:39:37;;;;;;;13.65;6.82;;;;;;;;;;5070753;28;20036;-81
2022/02/11 14:42:05;;;;;;;11.40;6.53;;;;;;;;;;5069676;28;20112;-81
2022/02/11 14:44:32;;;;;;;11.07;6.72;;;;;;;;;;5069992;28;20020;-81
2022/02/11 14:47:02;;;;;;;13.45;6.95;;;;;;;;;;5070118;28;20025;-81
2022/02/11 14:49:29;;;;;;;13.35;7.97;;;;;;;;;;5069796;28;20499;-83
2022/02/11 14:51:56;;;;;;;11.85;7.00;;;;;;;;;;5069856;28;20104;-80
2022/02/11 14:54:23;;;;;;;9.88;5.93;;;;;;;;;;5069739;28;20027;-84
2022/02/11 14:56:51;;;;;;;9.93;6.28;;;;;;;;;;5069588;28;20024;-81
2022/02/11 14:59:18;;;;;;;13.15;7.43;;;;;;;;;;5069335;28;20469;-84
2022/02/11 15:01:45;;;;;;;15.32;9.82;;;;;;;;;;5069806;28;20045;-85
2022/02/11 15:04:12;;;;;;;13.32;8.02;;;;;;;;;;5069503;28;20028;-83
2022/02/11 15:06:38;;;;;;;17.83;11.68;;;;;;;;;;5069690;28;20036;-82
2022/02/11 15:09:05;;;;;;;13.30;8.27;;;;;;;;;;5069823;28;20377;-83
2022/02/11 15:11:32;;;;;;;20.70;10.80;;;;;;;;;;5069253;28;20078;-83
2022/02/11 15:13:58;;;;;;;25.95;14.57;;;;;;;;;;5055175;28;20053;-83
2022/02/11 15:16:24;;;;;;;13.63;8.65;;;;;;;;;;5056568;28;20033;-83
2022/02/11 15:18:50;;;;;;;11.27;5.60;;;;;;;;;;5057148;28;20025;-82
2022/02/11 15:21:18;;;;;;;9.75;5.70;;;;;;;;;;5056452;28;20397;-81
2022/02/11 15:23:46;;;;;;;23.73;13.18;;;;;;;;;;5055679;28;20032;-82
2022/02/11 15:26:13;;;;;;;28.10;18.98;;;;;;;;;;5047077;28;20389;-81
2022/02/11 15:31:48;;;;;;;23.65;13.77;;;;;;;;;;5070467;28;20814;-82
2022/02/11 15:34:14;;;;;;;22.17;14.68;;;;;;;;;;5070789;28;20025;-81
2022/02/11 15:37:13;;;;;;;24.23;14.65;;;;;;;;;;5114272;27;20376;-80
2022/02/11 15:39:41;;;;;;;27.58;18.27;;;;;;;;;;5112059;28;20058;-81
2022/02/11 15:42:08;;;;;;;41.85;26.92;;;;;;;;;;5111303;28;20024;-82
2022/02/11 15:46:46;;;;;;;48.17;31.60;;;;;;;;;;5070876;28;20427;-80
2022/02/11 15:49:12;;;;;;;45.85;27.40;;;;;;;;;;5069513;28;20029;-80
2022/02/11 15:51:38;;;;;;;26.20;19.02;;;;;;;;;;5070291;28;20028;-82
2022/02/11 15:54:58;;;;;;;26.77;18.20;;;;;;;;;;5111774;27;20392;-80
2022/02/11 15:59:44;;;;;;;28.08;19.17;;;;;;;;;;5071163;28;20521;-86
2022/02/11 16:04:42;;;;;;;92.72;56.67;;;;;;;;;;5099754;27;1596399;-82
2022/02/11 16:14:49;;;;;;;91.07;55.70;;;;;;;;;;5111129;27;20381;-82
2022/02/11 16:18:40;;;;;;;100.18;59.75;;;;;;;;;;5111572;27;20113;-81
2022/02/11 16:21:06;;;;;;;120.05;74.85;;;;;;;;;;5090471;28;20495;-82
2022/02/11 16:23:40;;;;;;;113.60;67.30;;;;;;;;;;5091012;28;20028;-82
2022/02/11 16:26:06;;;;;;;106.85;65.15;;;;;;;;;;5091052;28;20095;-83
2022/02/11 16:28:33;;;;;;;111.68;69.57;;;;;;;;;;5090392;28;20021;-82
2022/02/11 16:31:20;;;;;;;115.72;73.60;;;;;;;;;;5112093;27;20775;-82
2022/02/11 16:34:32;;;;;;;125.25;85.32;;;;;;;;;;5111315;27;20504;-82
2022/02/11 16:36:58;;;;;;;102.35;60.75;;;;;;;;;;5105678;28;20115;-82
2022/02/11 16:39:47;;;;;;;153.13;89.65;;;;;;;;;;5111286;27;20381;-83
2022/02/11 16:44:22;;;;;;;164.00;97.93;;;;;;;;;;5112182;27;20481;-82
2022/02/11 16:46:49;;;;;;;152.10;91.93;;;;;;;;;;5109389;28;20476;-82
2022/02/11 16:57:53;;;;;;;189.43;116.28;;;;;;;;;;5111443;27;20388;-84
2022/02/11 17:00:38;;;;;;;195.32;117.30;;;;;;;;;;5112137;27;20385;-85
2022/02/11 17:03:06;;;;;;;199.82;119.05;;;;;;;;;;5111135;28;20031;-84
2022/02/11 17:05:33;;;;;;;140.13;81.43;;;;;;;;;;5112013;28;20099;-84
2022/02/11 17:07:59;;;;;;;138.88;87.63;;;;;;;;;;5111515;28;20099;-82
2022/02/11 17:10:25;;;;;;;127.07;80.50;;;;;;;;;;5110853;28;20426;-83
2022/02/11 17:13:16;;;;;;;129.88;78.28;;;;;;;;;;5112493;27;20509;-82
2022/02/11 17:17:34;;;;;;;108.68;66.95;;;;;;;;;;5111537;27;20466;-83
2022/02/11 17:20:00;;;;;;;85.88;51.22;;;;;;;;;;5111656;28;20028;-82
2022/02/11 17:22:26;;;;;;;91.32;51.70;;;;;;;;;;5109993;28;20482;-82
2022/02/11 17:24:53;;;;;;;77.38;44.63;;;;;;;;;;5109735;28;20077;-84
2022/02/11 17:27:20;;;;;;;90.10;51.33;;;;;;;;;;5111460;28;20019;-82
2022/02/11 17:29:46;;;;;;;70.65;45.88;;;;;;;;;;5109881;28;20024;-82
2022/02/11 17:32:12;;;;;;;94.60;56.42;;;;;;;;;;5109569;28;20392;-81
2022/02/11 17:34:40;;;;;;;96.65;54.88;;;;;;;;;;5109629;28;20361;-81
2022/02/11 17:37:06;;;;;;;108.35;58.67;;;;;;;;;;5110537;28;20084;-81
2022/02/11 17:39:33;;;;;;;88.70;52.85;;;;;;;;;;5110923;28;20011;-81
2022/02/11 17:42:00;;;;;;;78.03;47.95;;;;;;;;;;5111077;28;20024;-83
2022/02/11 17:44:26;;;;;;;125.72;64.05;;;;;;;;;;5110691;28;20104;-81
2022/02/11 17:46:52;;;;;;;93.00;51.17;;;;;;;;;;5110999;28;20019;-82
2022/02/11 17:49:20;;;;;;;80.18;43.28;;;;;;;;;;5110900;28;20365;-80
2022/02/11 17:51:46;;;;;;;58.63;36.92;;;;;;;;;;5110475;28;20016;-81
2022/02/11 17:54:14;;;;;;;52.92;32.90;;;;;;;;;;5109450;28;20055;-80
2022/02/11 17:56:43;;;;;;;41.22;27.25;;;;;;;;;;5109186;28;20038;-81
2022/02/11 17:59:10;;;;;;;36.25;23.83;;;;;;;;;;5110263;28;20103;-81
2022/02/11 18:01:37;;;;;;;41.95;26.25;;;;;;;;;;5110549;28;20078;-82
2022/02/11 18:04:03;;;;;;;63.95;41.10;;;;;;;;;;5110465;28;20028;-82
2022/02/11 18:06:29;;;;;;;56.85;36.20;;;;;;;;;;5110067;28;20024;-81
2022/02/11 18:08:56;;;;;;;48.83;32.03;;;;;;;;;;5110414;28;20069;-82
2022/02/11 18:11:23;;;;;;;51.70;32.45;;;;;;;;;;5110281;28;20028;-81
2022/02/11 18:13:49;;;;;;;47.33;31.73;;;;;;;;;;5109924;28;20031;-82
2022/02/11 18:16:15;;;;;;;57.03;34.47;;;;;;;;;;5110913;28;20515;-80
2022/02/11 18:18:42;;;;;;;77.38;43.80;;;;;;;;;;5108953;28;20024;-81
2022/02/11 18:21:08;;;;;;;98.20;52.33;;;;;;;;;;5108608;28;20031;-82
2022/02/11 18:23:36;;;;;;;86.18;48.60;;;;;;;;;;5110406;28;20024;-82
2022/02/11 18:26:03;;;;;;;83.72;47.15;;;;;;;;;;5110150;28;20076;-82
2022/02/11 18:28:29;;;;;;;78.57;45.35;;;;;;;;;;5098394;28;20027;-82
2022/02/11 18:30:55;;;;;;;50.25;31.50;;;;;;;;;;5096439;28;20028;-82
2022/02/11 18:33:21;;;;;;;47.97;29.73;;;;;;;;;;5096078;28;20028;-80
2022/02/11 18:35:47;;;;;;;45.45;29.73;;;;;;;;;;5094842;28;20032;-82
2022/02/11 18:38:14;;;;;;;66.53;43.60;;;;;;;;;;5096180;28;20031;-81
2022/02/11 18:40:41;;;;;;;90.38;58.20;;;;;;;;;;5095928;28;20099;-80
2022/02/11 18:43:08;;;;;;;125.93;76.07;;;;;;;;;;5096150;28;20074;-80
2022/02/11 18:45:35;;;;;;;140.77;84.43;;;;;;;;;;5096184;28;20034;-80
2022/02/11 18:48:02;;;;;;;123.45;75.30;;;;;;;;;;5095838;28;20024;-80
2022/02/11 18:50:29;;;;;;;135.18;80.85;;;;;;;;;;5096066;28;20047;-81
2022/02/11 18:52:55;;;;;;;140.10;87.22;;;;;;;;;;5094634;28;20024;-80
2022/02/11 18:55:22;;;;;;;140.90;82.70;;;;;;;;;;5095570;28;20100;-81
2022/02/11 18:57:48;;;;;;;101.40;66.55;;;;;;;;;;5094587;28;20032;-81
2022/02/11 19:00:27;;;;;;;102.68;62.40;;;;;;;;;;5095892;28;20480;-81
2022/02/11 19:02:56;;;;;;;95.75;61.33;;;;;;;;;;5095859;28;20036;-84
2022/02/11 19:05:23;;;;;;;97.57;59.22;;;;;;;;;;5094628;28;20017;-83
2022/02/11 19:07:50;;;;;;;90.70;55.50;;;;;;;;;;5096072;28;20520;-83
2022/02/11 19:10:17;;;;;;;63.67;41.72;;;;;;;;;;5095377;28;20104;-79
2022/02/11 19:12:43;;;;;;;60.90;38.10;;;;;;;;;;5095601;28;20437;-82
2022/02/11 19:15:10;;;;;;;65.82;37.05;;;;;;;;;;5094057;28;20047;-79
2022/02/11 19:17:36;;;;;;;54.00;33.90;;;;;;;;;;5095216;28;20032;-80
2022/02/11 19:20:03;;;;;;;54.55;37.33;;;;;;;;;;5095669;28;20023;-81
2022/02/11 19:22:29;;;;;;;52.05;31.90;;;;;;;;;;5095078;28;20054;-83